createdAt,value
2023-05-25T00:01:35.318Z,23.15
2023-05-25T00:04:04.957Z,21.20
2023-05-25T00:06:32.743Z,18.42
2023-05-25T00:08:59.176Z,17.52
2023-05-25T00:11:26.633Z,17.60
2023-05-25T00:13:53.327Z,17.30
2023-05-25T00:16:19.958Z,20.48
2023-05-25T00:18:48.471Z,22.83
2023-05-25T00:21:15.935Z,19.50
2023-05-25T00:23:42.895Z,14.18
2023-05-25T00:26:09.536Z,20.83
2023-05-25T00:28:36.079Z,18.55
2023-05-25T00:31:02.565Z,20.73
2023-05-25T00:33:29.194Z,16.70
2023-05-25T00:35:57.078Z,15.80
2023-05-25T00:38:23.552Z,21.73
2023-05-25T00:40:55.054Z,22.00
2023-05-25T00:43:21.593Z,17.38
2023-05-25T00:45:48.233Z,17.10
2023-05-25T00:48:15.467Z,23.73
2023-05-25T00:50:43.329Z,27.25
2023-05-25T00:53:11.790Z,20.55
2023-05-25T00:55:49.126Z,21.23
2023-05-25T00:58:18.099Z,25.02
2023-05-25T01:00:45.544Z,19.08
2023-05-25T01:03:17.761Z,24.48
2023-05-25T01:05:46.226Z,24.75
2023-05-25T01:08:14.450Z,21.48
2023-05-25T01:10:41.796Z,26.63
2023-05-25T01:13:09.817Z,18.17
2023-05-25T01:15:38.270Z,27.45
2023-05-25T01:18:05.674Z,30.55
2023-05-25T01:20:32.308Z,19.02
2023-05-25T01:23:12.087Z,20.02
2023-05-25T01:25:43.525Z,20.30
2023-05-25T01:28:15.364Z,19.80
2023-05-25T01:30:44.212Z,23.88
2023-05-25T01:33:10.822Z,23.05
2023-05-25T01:35:39.196Z,27.90
2023-05-25T01:38:05.856Z,20.90
2023-05-25T01:40:32.412Z,24.33
2023-05-25T01:42:58.854Z,29.98
2023-05-25T01:45:25.574Z,19.48
2023-05-25T01:48:23.201Z,25.45
2023-05-25T01:51:16.167Z,18.17
2023-05-25T01:53:45.141Z,18.77
2023-05-25T01:56:13.387Z,19.10
2023-05-25T01:58:42.992Z,22.88
2023-05-25T02:01:10.227Z,20.83
2023-05-25T02:03:38.342Z,20.98
2023-05-25T02:06:04.850Z,23.58
2023-05-25T02:08:31.406Z,23.00
2023-05-25T02:10:57.848Z,19.50
2023-05-25T02:13:24.513Z,25.40
2023-05-25T02:15:51.285Z,21.88
2023-05-25T02:18:17.895Z,16.30
2023-05-25T02:20:45.153Z,19.88
2023-05-25T02:23:11.666Z,20.23
2023-05-25T02:25:38.134Z,21.10
2023-05-25T02:28:04.922Z,17.00
2023-05-25T02:30:31.416Z,22.77
2023-05-25T02:32:58.011Z,27.35
2023-05-25T02:35:24.532Z,23.75
2023-05-25T02:37:51.327Z,18.08
2023-05-25T02:40:17.894Z,23.88
2023-05-25T02:42:44.352Z,20.50
2023-05-25T02:45:11.333Z,21.60
2023-05-25T02:47:37.919Z,23.73
2023-05-25T02:50:05.105Z,22.50
2023-05-25T02:52:31.835Z,20.88
2023-05-25T02:54:58.420Z,23.85
2023-05-25T02:57:24.926Z,20.33
2023-05-25T02:59:52.682Z,23.58
2023-05-25T03:02:20.912Z,21.80
2023-05-25T03:04:49.774Z,17.42
2023-05-25T03:07:16.373Z,21.70
2023-05-25T03:09:42.885Z,20.83
2023-05-25T03:12:09.379Z,17.40
2023-05-25T03:14:35.885Z,18.00
2023-05-25T03:17:02.386Z,18.70
2023-05-25T03:19:28.875Z,18.35
2023-05-25T03:21:55.395Z,14.40
2023-05-25T03:24:21.860Z,19.20
2023-05-25T03:26:48.335Z,15.60
2023-05-25T03:29:14.791Z,16.33
2023-05-25T03:31:41.324Z,13.77
2023-05-25T03:34:07.832Z,18.10
2023-05-25T03:36:34.363Z,24.48
2023-05-25T03:39:03.557Z,19.45
2023-05-25T03:41:30.014Z,15.38
2023-05-25T03:43:56.534Z,13.63
2023-05-25T03:46:23.234Z,17.38
2023-05-25T03:48:49.754Z,21.08
2023-05-25T03:51:16.494Z,19.98
2023-05-25T03:53:42.998Z,18.17
2023-05-25T03:56:09.480Z,20.23
2023-05-25T03:58:35.955Z,21.40
2023-05-25T04:01:04.928Z,19.85
2023-05-25T04:03:32.884Z,20.50
2023-05-25T04:06:00.510Z,21.98
2023-05-25T04:08:28.657Z,17.92
2023-05-25T04:10:56.066Z,26.98
2023-05-25T04:13:22.725Z,22.40
2023-05-25T04:15:50.535Z,16.95
2023-05-25T04:18:17.113Z,20.40
2023-05-25T04:20:43.662Z,22.92
2023-05-25T04:23:10.138Z,18.88
2023-05-25T04:25:37.577Z,22.67
2023-05-25T04:28:04.098Z,21.73
2023-05-25T04:30:31.454Z,19.25
2023-05-25T04:33:02.611Z,18.60
2023-05-25T04:35:29.259Z,15.40
2023-05-25T04:37:56.795Z,18.67
2023-05-25T04:40:23.284Z,16.25
2023-05-25T04:42:49.812Z,17.45
2023-05-25T04:45:17.266Z,18.58
2023-05-25T04:47:43.861Z,18.13
2023-05-25T04:50:10.961Z,15.85
2023-05-25T04:52:37.453Z,18.15
2023-05-25T04:55:04.054Z,17.38
2023-05-25T04:57:31.530Z,20.50
2023-05-25T04:59:58.428Z,18.42
2023-05-25T05:02:25.562Z,23.48
2023-05-25T05:04:53.706Z,19.95
2023-05-25T05:07:21.884Z,22.75
2023-05-25T05:09:49.117Z,19.25
2023-05-25T05:12:15.596Z,24.85
2023-05-25T05:14:42.082Z,24.48
2023-05-25T05:17:08.584Z,33.38
2023-05-25T05:19:35.087Z,26.63
2023-05-25T05:22:01.532Z,26.55
2023-05-25T05:24:27.998Z,29.65
2023-05-25T05:26:58.205Z,29.02
2023-05-25T05:29:26.749Z,26.90
2023-05-25T05:31:54.929Z,25.77
2023-05-25T05:34:21.890Z,30.38
2023-05-25T05:36:57.192Z,34.10
2023-05-25T05:39:24.952Z,31.25
2023-05-25T05:41:51.417Z,23.05
2023-05-25T05:44:18.503Z,31.52
2023-05-25T05:46:45.065Z,25.08
2023-05-25T05:49:11.618Z,23.65
2023-05-25T05:51:38.164Z,24.17
2023-05-25T05:54:05.244Z,23.73
2023-05-25T05:56:31.707Z,21.77
2023-05-25T05:58:58.233Z,30.05
2023-05-25T06:01:25.396Z,19.65
2023-05-25T06:03:54.228Z,18.75
2023-05-25T06:06:21.698Z,19.08
2023-05-25T06:08:48.260Z,19.33
2023-05-25T06:11:14.741Z,22.50
2023-05-25T06:13:41.379Z,16.80
2023-05-25T06:16:07.979Z,21.92
2023-05-25T06:18:34.546Z,16.25
2023-05-25T06:21:01.554Z,19.13
2023-05-25T06:23:28.019Z,20.10
2023-05-25T06:25:55.216Z,15.73
2023-05-25T06:28:21.704Z,18.05
2023-05-25T06:30:48.207Z,18.67
2023-05-25T06:33:14.691Z,14.60
2023-05-25T06:35:42.724Z,15.27
2023-05-25T06:38:09.465Z,16.85
2023-05-25T06:40:35.925Z,19.27
2023-05-25T06:43:02.546Z,21.98
2023-05-25T06:45:29.007Z,18.40
2023-05-25T06:47:55.604Z,17.95
2023-05-25T06:50:22.338Z,15.70
2023-05-25T06:52:48.946Z,14.75
2023-05-25T06:55:15.438Z,16.75
2023-05-25T06:57:41.955Z,15.85
2023-05-25T07:00:12.074Z,13.48
2023-05-25T07:02:39.001Z,20.85
2023-05-25T07:05:06.200Z,16.40
2023-05-25T07:07:33.146Z,17.45
2023-05-25T07:09:59.686Z,20.60
2023-05-25T07:12:26.139Z,17.67
2023-05-25T07:14:52.609Z,18.15
2023-05-25T07:17:19.395Z,23.65
2023-05-25T07:19:46.064Z,17.83
2023-05-25T07:22:12.788Z,23.83
2023-05-25T07:24:39.283Z,18.88
2023-05-25T07:27:06.653Z,21.23
2023-05-25T07:29:33.344Z,25.38
2023-05-25T07:31:59.791Z,18.73
2023-05-25T07:34:27.936Z,23.58
2023-05-25T07:36:54.576Z,20.85
2023-05-25T07:39:21.094Z,19.42
2023-05-25T07:41:47.584Z,16.77
2023-05-25T07:44:14.095Z,19.98
2023-05-25T07:46:40.853Z,20.52
2023-05-25T07:49:11.934Z,17.83
2023-05-25T07:51:38.847Z,18.00
2023-05-25T07:54:05.330Z,27.05
2023-05-25T07:56:31.782Z,19.88
2023-05-25T07:58:59.965Z,16.13
2023-05-25T08:01:27.152Z,18.60
2023-05-25T08:03:53.796Z,19.35
2023-05-25T08:06:20.714Z,19.65
2023-05-25T08:08:47.428Z,17.15
2023-05-25T08:11:15.034Z,20.80
2023-05-25T08:13:41.495Z,25.58
2023-05-25T08:16:09.053Z,20.58
2023-05-25T08:18:35.841Z,22.20
2023-05-25T08:21:02.553Z,19.33
2023-05-25T08:23:28.996Z,21.50
2023-05-25T08:25:55.505Z,15.68
2023-05-25T08:28:22.368Z,19.45
2023-05-25T08:30:49.084Z,18.58
2023-05-25T08:33:15.583Z,19.67
2023-05-25T08:35:43.120Z,18.45
2023-05-25T08:38:09.933Z,15.73
2023-05-25T08:40:38.545Z,20.45
2023-05-25T08:43:05.569Z,16.92
2023-05-25T08:45:34.937Z,19.25
2023-05-25T08:48:04.559Z,16.23
2023-05-25T08:50:32.532Z,17.58
2023-05-25T08:53:02.928Z,15.18
2023-05-25T08:55:31.088Z,16.05
2023-05-25T08:58:10.536Z,16.48
2023-05-25T09:00:43.134Z,20.88
2023-05-25T09:03:17.961Z,19.42
2023-05-25T09:05:45.225Z,13.15
2023-05-25T09:08:11.841Z,15.18
2023-05-25T09:10:38.976Z,16.08
2023-05-25T09:13:19.610Z,15.73
2023-05-25T09:15:49.163Z,20.63
2023-05-25T09:18:15.709Z,17.00
2023-05-25T09:20:44.399Z,18.80
2023-05-25T09:23:13.505Z,13.55
2023-05-25T09:25:41.037Z,18.25
2023-05-25T09:28:25.320Z,21.13
2023-05-25T09:30:53.464Z,19.17
2023-05-25T09:33:20.040Z,15.50
2023-05-25T09:35:46.675Z,14.48
2023-05-25T09:38:14.964Z,13.63
2023-05-25T09:40:41.800Z,16.98
2023-05-25T09:43:08.301Z,14.65
2023-05-25T09:45:38.219Z,15.45
2023-05-25T09:48:06.312Z,18.98
2023-05-25T09:50:32.831Z,14.75
2023-05-25T09:53:01.695Z,22.20
2023-05-25T09:55:40.035Z,15.57
2023-05-25T09:58:15.672Z,18.38
2023-05-25T10:00:42.207Z,18.40
2023-05-25T10:03:09.249Z,18.77
2023-05-25T10:05:35.750Z,17.48
2023-05-25T10:08:02.685Z,14.48
2023-05-25T10:10:29.520Z,17.23
2023-05-25T10:12:56.123Z,12.93
2023-05-25T10:15:22.915Z,15.98
2023-05-25T10:17:54.523Z,14.48
2023-05-25T10:20:24.899Z,17.55
2023-05-25T10:23:04.925Z,17.35
2023-05-25T10:25:44.957Z,14.18
2023-05-25T10:28:35.758Z,13.85
2023-05-25T10:31:03.427Z,17.60
2023-05-25T10:36:09.534Z,17.80
2023-05-25T10:38:39.378Z,14.57
2023-05-25T10:41:06.108Z,16.65
2023-05-25T10:43:32.674Z,17.17
2023-05-25T10:45:59.404Z,20.35
2023-05-25T10:48:35.851Z,15.98
2023-05-25T10:51:02.296Z,16.27
2023-05-25T10:53:28.797Z,16.73
2023-05-25T10:55:55.303Z,17.17
2023-05-25T10:58:22.991Z,13.48
2023-05-25T11:01:02.590Z,15.13
2023-05-25T11:03:47.339Z,13.48
2023-05-25T11:06:15.566Z,22.10
2023-05-25T11:08:59.108Z,14.05
2023-05-25T11:11:44.413Z,14.85
2023-05-25T11:14:23.867Z,17.52
2023-05-25T11:17:10.957Z,14.88
2023-05-25T11:19:47.919Z,20.42
2023-05-25T11:22:35.173Z,16.00
2023-05-25T11:25:03.184Z,24.60
2023-05-25T11:27:31.530Z,21.40
2023-05-25T11:29:59.038Z,17.13
2023-05-25T11:32:26.596Z,16.65
2023-05-25T11:34:53.943Z,16.33
2023-05-25T11:37:22.037Z,18.50
2023-05-25T11:39:49.844Z,18.20
2023-05-25T11:42:17.555Z,18.45
2023-05-25T11:44:44.293Z,15.32
2023-05-25T11:47:14.777Z,22.33
2023-05-25T11:49:42.326Z,18.65
2023-05-25T11:52:09.970Z,20.13
2023-05-25T11:54:36.958Z,19.00
2023-05-25T11:57:03.776Z,16.17
2023-05-25T11:59:32.516Z,18.35
2023-05-25T12:02:04.180Z,18.42
2023-05-25T12:04:34.871Z,15.15
2023-05-25T12:07:05.692Z,15.25
2023-05-25T12:09:32.414Z,18.15
2023-05-25T12:11:59.397Z,14.18
2023-05-25T12:14:26.233Z,17.35
2023-05-25T12:16:52.933Z,17.25
2023-05-25T12:19:19.557Z,18.48
2023-05-25T12:21:46.248Z,15.15
2023-05-25T12:24:13.409Z,15.55
2023-05-25T12:26:57.450Z,15.20
2023-05-25T12:29:25.571Z,15.27
2023-05-25T12:31:52.534Z,17.23
2023-05-25T12:34:20.097Z,17.25
2023-05-25T12:36:51.811Z,15.00
2023-05-25T12:39:30.532Z,16.27
2023-05-25T12:41:56.905Z,14.30
2023-05-25T12:44:28.769Z,11.88
2023-05-25T12:46:56.542Z,15.52
2023-05-25T12:49:23.919Z,16.42
2023-05-25T12:51:50.428Z,12.18
2023-05-25T12:54:18.049Z,9.60
2023-05-25T12:56:57.155Z,12.65
2023-05-25T13:01:50.689Z,13.93
2023-05-25T13:04:17.191Z,13.43
2023-05-25T13:06:43.659Z,13.25
2023-05-25T13:09:10.225Z,13.88
2023-05-25T13:11:36.753Z,10.88
2023-05-25T13:14:04.331Z,10.75
2023-05-25T13:16:32.880Z,11.70
2023-05-25T13:18:59.969Z,10.23
2023-05-25T13:21:26.504Z,12.73
2023-05-25T13:23:52.969Z,11.00
2023-05-25T13:26:20.555Z,9.85
2023-05-25T13:28:48.385Z,9.55
2023-05-25T13:31:14.883Z,12.18
2023-05-25T13:33:41.430Z,12.13
2023-05-25T13:36:08.298Z,13.48
2023-05-25T13:38:35.466Z,11.35
2023-05-25T13:41:02.310Z,15.27
2023-05-25T13:43:29.441Z,10.88
2023-05-25T13:45:56.095Z,11.10
2023-05-25T13:48:22.693Z,10.35
2023-05-25T13:50:49.390Z,12.23
2023-05-25T13:53:16.226Z,13.93
2023-05-25T13:55:43.232Z,13.50
2023-05-25T13:58:09.977Z,10.75
2023-05-25T14:00:36.746Z,11.48
2023-05-25T14:03:03.424Z,11.43
2023-05-25T14:05:30.381Z,12.60
2023-05-25T14:07:57.038Z,11.32
2023-05-25T14:10:23.488Z,12.25
2023-05-25T14:12:49.953Z,13.20
2023-05-25T14:15:16.402Z,11.43
2023-05-25T14:17:42.921Z,13.57
2023-05-25T14:20:09.779Z,11.52
2023-05-25T14:22:36.309Z,14.82
2023-05-25T14:25:02.816Z,13.38
2023-05-25T14:27:29.960Z,10.13
2023-05-25T14:29:56.410Z,9.40
2023-05-25T14:32:22.868Z,10.85
2023-05-25T14:34:49.322Z,11.73
2023-05-25T14:37:15.858Z,9.82
2023-05-25T14:39:42.328Z,8.32
2023-05-25T14:42:08.776Z,12.13
2023-05-25T14:44:35.408Z,10.20
2023-05-25T14:47:02.042Z,11.88
2023-05-25T14:49:28.574Z,9.82
2023-05-25T14:51:55.046Z,10.70
2023-05-25T14:54:21.511Z,9.52
2023-05-25T14:56:48.091Z,8.43
2023-05-25T14:59:14.558Z,12.30
2023-05-25T15:01:41.127Z,10.43
2023-05-25T15:04:08.687Z,10.95
2023-05-25T15:06:36.778Z,10.68
2023-05-25T15:09:03.333Z,8.65
2023-05-25T15:11:29.785Z,10.32
2023-05-25T15:13:57.856Z,11.10
2023-05-25T15:16:24.548Z,10.07
2023-05-25T15:18:51.716Z,8.32
2023-05-25T15:21:18.180Z,8.68
2023-05-25T15:23:44.959Z,7.90
2023-05-25T15:26:11.701Z,8.93
2023-05-25T15:28:38.193Z,11.32
2023-05-25T15:31:04.804Z,8.80
2023-05-25T15:33:47.124Z,11.60
2023-05-25T15:36:17.941Z,11.65
2023-05-25T15:38:45.687Z,7.53
2023-05-25T15:41:15.080Z,8.82
2023-05-25T15:43:41.839Z,7.35
2023-05-25T15:46:08.390Z,9.60
2023-05-25T15:48:34.848Z,11.15
2023-05-25T15:51:01.313Z,13.35
2023-05-25T15:53:27.767Z,12.63
2023-05-25T15:55:54.220Z,12.32
2023-05-25T15:58:20.675Z,11.27
2023-05-25T16:00:47.208Z,9.82
2023-05-25T16:03:13.643Z,14.45
2023-05-25T16:05:40.110Z,10.82
2023-05-25T16:08:06.554Z,6.93
2023-05-25T16:10:33.038Z,10.23
2023-05-25T16:12:59.475Z,9.88
2023-05-25T16:15:26.265Z,10.38
2023-05-25T16:17:52.738Z,12.57
2023-05-25T16:20:19.281Z,12.50
2023-05-25T16:22:45.968Z,10.75
2023-05-25T16:25:12.444Z,14.68
2023-05-25T16:27:38.917Z,12.68
2023-05-25T16:30:06.388Z,14.32
2023-05-25T16:32:32.978Z,13.27
2023-05-25T16:34:59.609Z,8.20
2023-05-25T16:37:26.114Z,16.45
2023-05-25T16:39:52.592Z,10.23
2023-05-25T16:42:19.412Z,10.25
2023-05-25T16:44:45.901Z,11.40
2023-05-25T16:47:12.353Z,9.27
2023-05-25T16:49:38.792Z,12.65
2023-05-25T16:52:05.586Z,9.48
2023-05-25T16:54:32.034Z,13.25
2023-05-25T16:56:58.534Z,10.35
2023-05-25T16:59:24.993Z,14.65
2023-05-25T17:01:51.911Z,14.85
2023-05-25T17:04:18.462Z,11.15
2023-05-25T17:06:44.910Z,9.10
2023-05-25T17:09:11.936Z,8.43
2023-05-25T17:11:38.497Z,9.48
2023-05-25T17:14:05.070Z,10.25
2023-05-25T17:16:31.683Z,8.60
2023-05-25T17:18:58.164Z,11.55
2023-05-25T17:21:24.623Z,10.48
2023-05-25T17:23:51.056Z,11.75
2023-05-25T17:26:17.513Z,13.70
2023-05-25T17:28:44.155Z,12.32
2023-05-25T17:31:10.755Z,11.13
2023-05-25T17:33:38.763Z,15.73
2023-05-25T17:36:05.786Z,14.90
2023-05-25T17:38:34.318Z,13.50
2023-05-25T17:41:00.850Z,15.18
2023-05-25T17:43:27.429Z,12.43
2023-05-25T17:45:54.035Z,10.93
2023-05-25T17:48:20.537Z,12.73
2023-05-25T17:50:47.114Z,13.95
2023-05-25T17:53:13.571Z,10.20
2023-05-25T17:55:40.156Z,17.35
2023-05-25T17:58:06.621Z,13.85
2023-05-25T18:00:33.220Z,13.90
2023-05-25T18:02:59.750Z,11.35
2023-05-25T18:05:26.256Z,16.13
2023-05-25T18:07:52.706Z,16.27
2023-05-25T18:10:19.160Z,14.00
2023-05-25T18:12:49.081Z,10.70
2023-05-25T18:15:15.559Z,11.23
2023-05-25T18:17:42.127Z,14.13
2023-05-25T18:20:09.370Z,11.75
2023-05-25T18:22:36.393Z,10.60
2023-05-25T18:25:03.624Z,12.10
2023-05-25T18:27:30.097Z,13.05
2023-05-25T18:29:56.564Z,12.02
2023-05-25T18:32:23.057Z,13.93
2023-05-25T18:34:49.652Z,16.27
2023-05-25T18:37:16.163Z,12.18
2023-05-25T18:39:42.705Z,13.55
2023-05-25T18:42:09.183Z,9.45
2023-05-25T18:44:36.493Z,16.33
2023-05-25T18:47:02.971Z,16.25
2023-05-25T18:49:34.451Z,11.30
2023-05-25T18:52:01.509Z,15.60
2023-05-25T18:54:28.163Z,14.82
2023-05-25T18:56:54.612Z,10.88
2023-05-25T18:59:21.061Z,10.00
2023-05-25T19:01:47.535Z,11.82
2023-05-25T19:04:14.097Z,14.55
2023-05-25T19:06:40.754Z,16.38
2023-05-25T19:09:07.264Z,13.82
2023-05-25T19:11:33.831Z,14.25
2023-05-25T19:14:00.322Z,13.77
2023-05-25T19:16:26.826Z,9.10
2023-05-25T19:18:53.335Z,17.13
2023-05-25T19:21:19.768Z,16.42
2023-05-25T19:23:46.312Z,15.77
2023-05-25T19:26:12.830Z,13.77
2023-05-25T19:28:39.391Z,10.80
2023-05-25T19:31:05.831Z,15.57
2023-05-25T19:33:32.284Z,13.82
2023-05-25T19:35:58.792Z,15.60
2023-05-25T19:38:28.784Z,17.98
2023-05-25T19:41:00.963Z,13.25
2023-05-25T19:43:27.470Z,14.10
2023-05-25T19:45:53.979Z,18.95
2023-05-25T19:48:20.640Z,15.35
2023-05-25T19:50:47.113Z,16.17
2023-05-25T19:53:13.617Z,13.85
2023-05-25T19:55:40.183Z,16.05
2023-05-25T19:58:06.863Z,13.43
2023-05-25T20:00:33.355Z,15.13
2023-05-25T20:02:59.913Z,14.70
2023-05-25T20:05:26.498Z,14.82
2023-05-25T20:07:53.025Z,12.10
2023-05-25T20:10:19.794Z,13.57
2023-05-25T20:12:46.324Z,12.82
2023-05-25T20:15:12.840Z,12.23
2023-05-25T20:17:39.337Z,15.93
2023-05-25T20:20:06.664Z,15.05
2023-05-25T20:22:33.226Z,16.17
2023-05-25T20:25:00.834Z,12.32
2023-05-25T20:27:27.980Z,11.95
2023-05-25T20:29:54.834Z,16.45
2023-05-25T20:32:21.470Z,14.30
2023-05-25T20:34:48.051Z,12.43
2023-05-25T20:37:14.554Z,13.93
2023-05-25T20:39:41.109Z,14.82
2023-05-25T20:42:07.692Z,18.23
2023-05-25T20:44:34.245Z,20.55
2023-05-25T20:47:00.890Z,21.25
2023-05-25T20:49:27.480Z,20.17
2023-05-25T20:51:53.956Z,26.33
2023-05-25T20:54:20.408Z,22.67
2023-05-25T20:56:48.028Z,20.05
2023-05-25T20:59:14.609Z,17.15
2023-05-25T21:01:41.136Z,20.50
2023-05-25T21:04:07.849Z,22.75
2023-05-25T21:06:34.423Z,22.67
2023-05-25T21:09:01.546Z,22.05
2023-05-25T21:11:28.606Z,28.15
2023-05-25T21:13:55.567Z,31.35
2023-05-25T21:16:22.095Z,19.85
2023-05-25T21:18:48.649Z,30.67
2023-05-25T21:21:15.997Z,20.02
2023-05-25T21:23:42.517Z,29.25
2023-05-25T21:26:08.977Z,26.88
2023-05-25T21:28:35.479Z,27.80
2023-05-25T21:31:02.055Z,31.35
2023-05-25T21:33:30.864Z,23.35
2023-05-25T21:35:57.384Z,20.63
2023-05-25T21:38:23.827Z,26.88
2023-05-25T21:40:50.283Z,33.85
2023-05-25T21:43:16.737Z,24.65
2023-05-25T21:45:43.413Z,24.55
2023-05-25T21:48:10.167Z,23.98
2023-05-25T21:50:36.611Z,32.53
2023-05-25T21:53:03.132Z,31.65
2023-05-25T21:55:29.644Z,23.55
2023-05-25T21:57:56.183Z,26.08
2023-05-25T22:00:24.395Z,27.35
2023-05-25T22:02:51.461Z,33.58
2023-05-25T22:05:18.085Z,28.52
2023-05-25T22:07:44.547Z,29.40
2023-05-25T22:10:11.132Z,27.30
2023-05-25T22:12:37.599Z,38.70
2023-05-25T22:15:05.639Z,26.98
2023-05-25T22:17:32.208Z,26.00
2023-05-25T22:20:07.586Z,25.95
2023-05-25T22:22:34.658Z,31.20
2023-05-25T22:25:01.122Z,26.35
2023-05-25T22:27:27.568Z,32.80
2023-05-25T22:29:54.074Z,22.58
2023-05-25T22:32:20.611Z,30.75
2023-05-25T22:34:47.270Z,28.27
2023-05-25T22:37:14.000Z,31.17
2023-05-25T22:39:40.555Z,28.75
2023-05-25T22:42:07.185Z,33.97
2023-05-25T22:44:35.491Z,24.08
2023-05-25T22:47:02.363Z,35.03
2023-05-25T22:49:28.871Z,29.15
2023-05-25T22:51:55.648Z,29.15
2023-05-25T22:54:22.110Z,23.38
2023-05-25T22:56:48.544Z,33.25
2023-05-25T22:59:14.991Z,30.58
2023-05-25T23:01:41.469Z,32.20
2023-05-25T23:04:08.862Z,26.30
2023-05-25T23:06:36.503Z,25.85
2023-05-25T23:09:03.050Z,27.35
2023-05-25T23:11:29.524Z,31.10
2023-05-25T23:13:56.028Z,26.08
2023-05-25T23:16:22.720Z,21.77
2023-05-25T23:18:51.280Z,28.80
2023-05-25T23:21:17.814Z,26.85
2023-05-25T23:23:44.272Z,26.80
2023-05-25T23:26:10.730Z,25.20
2023-05-25T23:28:37.282Z,26.70
2023-05-25T23:31:03.873Z,29.85
2023-05-25T23:33:30.393Z,28.05
2023-05-25T23:35:57.184Z,27.15
2023-05-25T23:38:23.685Z,26.77
2023-05-25T23:40:50.131Z,23.85
2023-05-25T23:43:16.996Z,32.53
2023-05-25T23:45:43.734Z,26.15
2023-05-25T23:48:10.442Z,21.73
2023-05-25T23:50:36.972Z,28.02
2023-05-25T23:53:03.403Z,27.73
2023-05-25T23:55:30.567Z,24.42
2023-05-25T23:57:57.036Z,22.45
